Time;durP1;ratioP1;P1;durP2;ratioP2;P2;SDS_P1;SDS_P2;PMS_P1;PMS_P2;Temp;Humidity;BMP_temperature;BMP_pressure;BME280_temperature;BME280_humidity;BME280_pressure;Samples;Min_cycle;Max_cycle;Signal;HPM_P1;HPM_P2
2021/12/19 00:02:18;;;;;;;3.83;1.35;;;;;;;20.45;36.70;103613.78;7313937;19;129159;-69
2021/12/19 00:10:16;;;;;;;3.67;1.60;;;;;;;20.40;37.17;103605.16;7310844;19;131417;-69
2021/12/19 00:12:43;;;;;;;4.18;1.40;;;;;;;20.39;36.85;103609.00;7315695;19;129401;-69
2021/12/19 00:15:10;;;;;;;3.17;1.33;;;;;;;20.38;36.67;103610.06;7314681;19;129120;-68
2021/12/19 00:17:38;;;;;;;1.58;1.20;;;;;;;20.36;37.12;103610.25;7316686;19;135448;-68
2021/12/19 00:20:06;;;;;;;2.17;1.70;;;;;;;20.35;37.17;103619.66;7314513;19;131352;-69
2021/12/19 00:22:52;;;;;;;2.40;1.38;;;;;;;20.35;36.95;103616.00;7316329;19;129599;-68
2021/12/19 00:25:19;;;;;;;3.20;1.27;;;;;;;20.33;36.74;103598.63;7314814;19;129101;-69
2021/12/19 00:27:46;;;;;;;2.38;1.30;;;;;;;20.32;37.04;103597.78;7315323;19;131277;-68
2021/12/19 00:30:13;;;;;;;2.70;1.30;;;;;;;20.29;36.79;103589.81;7317337;19;130421;-69
2021/12/19 00:32:40;;;;;;;3.83;1.45;;;;;;;20.28;37.05;103590.88;7315350;19;128973;-68
2021/12/19 00:35:07;;;;;;;4.03;1.30;;;;;;;20.27;37.35;103595.59;7317743;19;130430;-69
2021/12/19 00:37:34;;;;;;;3.65;1.48;;;;;;;20.24;37.25;103587.63;7312134;19;130443;-68
2021/12/19 00:40:01;;;;;;;3.13;1.30;;;;;;;20.22;37.07;103586.94;7314836;19;131184;-68
2021/12/19 00:42:36;;;;;;;3.88;1.20;;;;;;;20.22;37.12;103586.94;7312044;19;130150;-68
2021/12/19 00:45:15;;;;;;;3.08;1.40;;;;;;;20.20;37.39;103591.84;7316376;19;133997;-68
2021/12/19 00:47:43;;;;;;;6.53;1.70;;;;;;;20.17;37.31;103586.69;7316401;19;130796;-68
2021/12/19 00:50:12;;;;;;;5.60;1.45;;;;;;;20.18;37.17;103584.75;7313896;19;130715;-68
2021/12/19 00:52:42;;;;;;;2.58;1.52;;;;;;;20.16;37.36;103581.28;7316805;19;128835;-68
2021/12/19 00:55:09;;;;;;;5.55;1.27;;;;;;;20.15;37.49;103580.44;7313783;19;128829;-68
2021/12/19 00:57:35;;;;;;;1.23;1.02;;;;;;;20.14;36.92;103574.00;7313604;19;131333;-68
2021/12/19 01:00:06;;;;;;;2.67;1.30;;;;;;;20.14;37.04;103579.56;7313523;19;130966;-68
2021/12/19 01:02:33;;;;;;;2.35;1.15;;;;;;;20.13;37.20;103577.00;7316211;19;128795;-68
2021/12/19 01:05:00;;;;;;;3.25;1.40;;;;;;;20.12;37.26;103575.25;7313456;19;128874;-68
2021/12/19 01:07:27;;;;;;;3.85;1.30;;;;;;;20.10;36.94;103574.59;7314550;19;131243;-68
2021/12/19 01:09:54;;;;;;;3.78;1.38;;;;;;;20.10;36.94;103575.47;7316450;19;130475;-69
2021/12/19 01:12:21;;;;;;;4.20;1.33;;;;;;;20.09;37.01;103575.63;7314051;19;128982;-68
2021/12/19 01:14:47;;;;;;;3.67;1.20;;;;;;;20.08;37.19;103579.47;7315669;19;129375;-68
2021/12/19 01:17:14;;;;;;;5.78;1.20;;;;;;;20.06;37.42;103576.06;7311291;19;131817;-68
2021/12/19 01:19:41;;;;;;;2.00;1.38;;;;;;;20.05;37.50;103575.16;7314806;19;131740;-68
2021/12/19 01:22:08;;;;;;;1.80;1.10;;;;;;;20.04;36.98;103570.66;7311751;19;129006;-68
2021/12/19 01:24:34;;;;;;;2.05;1.40;;;;;;;20.03;37.34;103568.09;7315092;19;129235;-68
2021/12/19 01:27:01;;;;;;;1.20;1.10;;;;;;;20.03;37.21;103570.88;7313714;19;133287;-69
2021/12/19 01:29:28;;;;;;;2.70;1.30;;;;;;;20.02;37.22;103563.59;7313862;19;130616;-68
2021/12/19 01:31:55;;;;;;;3.63;1.33;;;;;;;20.00;37.35;103569.31;7314554;19;128837;-68
2021/12/19 01:34:22;;;;;;;2.53;1.58;;;;;;;19.99;37.02;103562.03;7312854;19;128784;-68
2021/12/19 01:36:49;;;;;;;2.72;1.40;;;;;;;19.98;36.99;103561.16;7312694;19;131662;-69
2021/12/19 01:39:16;;;;;;;1.45;1.20;;;;;;;19.95;37.33;103555.97;7312436;19;131219;-68
2021/12/19 01:41:53;;;;;;;3.63;1.50;;;;;;;19.95;37.14;103555.97;7315263;19;129060;-68
2021/12/19 01:44:20;;;;;;;;;;;;;;;19.92;37.40;103561.94;7314667;19;128814;-68
2021/12/19 01:46:48;;;;;;;1.88;1.30;;;;;;;19.93;37.18;103555.31;7314350;19;131333;-68
2021/12/19 01:49:17;;;;;;;2.70;1.60;;;;;;;19.94;37.22;103557.00;7312766;19;131688;-68
2021/12/19 01:51:44;;;;;;;1.73;1.45;;;;;;;19.90;37.05;103552.91;7312801;19;128891;-68
2021/12/19 01:54:11;;;;;;;3.88;1.63;;;;;;;19.90;37.12;103561.25;7315000;19;129013;-68
2021/12/19 01:56:39;;;;;;;2.17;1.27;;;;;;;19.89;37.28;103567.84;7313226;19;131131;-68
2021/12/19 01:59:10;;;;;;;1.70;1.30;;;;;;;19.88;37.10;103560.56;7315117;19;131261;-68
2021/12/19 02:01:52;;;;;;;3.45;1.30;;;;;;;19.87;37.38;103556.06;7311230;19;128877;-68
2021/12/19 02:04:21;;;;;;;2.33;1.52;;;;;;;19.85;37.44;103558.16;7314686;19;128759;-68
2021/12/19 02:06:48;;;;;;;5.25;1.40;;;;;;;19.85;37.26;103549.84;7312819;19;130287;-69
2021/12/19 02:09:17;;;;;;;2.00;1.20;;;;;;;19.84;37.48;103553.66;7313390;19;130905;-68
2021/12/19 02:11:44;;;;;;;1.58;1.10;;;;;;;19.83;37.46;103552.81;7311760;19;129165;-68
2021/12/19 02:14:11;;;;;;;1.75;1.20;;;;;;;19.83;37.09;103554.72;7312048;19;129873;-68
2021/12/19 02:16:40;;;;;;;2.28;1.23;;;;;;;19.82;37.25;103547.44;7313238;19;131512;-68
2021/12/19 02:19:08;;;;;;;1.85;1.20;;;;;;;19.81;37.07;103542.97;7311254;19;131162;-68
2021/12/19 02:21:35;;;;;;;1.60;1.10;;;;;;;19.80;37.12;103535.69;7315709;19;130117;-68
2021/12/19 02:24:08;;;;;;;1.48;1.08;;;;;;;19.80;37.31;103533.75;7310354;19;129066;-68
2021/12/19 02:26:36;;;;;;;1.58;1.13;;;;;;;19.79;37.47;103534.78;7313864;19;130601;-68
2021/12/19 02:29:03;;;;;;;1.40;1.00;;;;;;;19.77;37.19;103524.94;7312165;19;130611;-69
2021/12/19 02:31:30;;;;;;;1.98;1.30;;;;;;;19.77;37.38;103524.94;7312740;19;129206;-68
2021/12/19 02:34:06;;;;;;;1.83;1.20;;;;;;;19.75;37.28;103513.16;7314271;19;129620;-69
2021/12/19 02:50:24;;;;;;;3.08;1.75;;;;;;;19.68;37.37;103508.38;7311665;19;130397;-68
2021/12/19 02:52:52;;;;;;;2.95;2.00;;;;;;;19.65;37.54;103500.41;7312550;19;128857;-68
2021/12/19 02:55:20;;;;;;;3.20;1.90;;;;;;;19.64;37.48;103497.81;7310598;19;129041;-68
2021/12/19 02:57:48;;;;;;;3.25;2.05;;;;;;;19.62;37.65;103495.22;7311251;19;130612;-68
2021/12/19 03:00:21;;;;;;;3.42;2.22;;;;;;;19.61;37.48;103496.28;7313691;19;130599;-68
2021/12/19 03:02:49;;;;;;;2.58;2.00;;;;;;;19.60;37.68;103491.78;7311281;19;129943;-68
2021/12/19 03:05:16;;;;;;;3.05;1.85;;;;;;;19.60;37.22;103494.56;7317374;19;129357;-68
2021/12/19 03:07:43;;;;;;;3.78;1.65;;;;;;;19.59;37.53;103492.81;7316804;19;131209;-68
2021/12/19 03:13:12;;;;;;;3.42;2.05;;;;;;;19.58;37.78;103490.25;7317741;19;128920;-68
2021/12/19 03:18:30;;;;;;;2.92;1.92;;;;;;;19.53;37.68;103469.47;7319935;19;130746;-68
2021/12/19 03:20:58;;;;;;;5.28;2.47;;;;;;;19.53;37.44;103471.41;7317072;19;130550;-68
2021/12/19 03:23:27;;;;;;;4.38;2.28;;;;;;;19.51;37.68;103474.34;7317331;19;129424;-68
2021/12/19 03:25:54;;;;;;;3.90;2.60;;;;;;;19.50;37.81;103467.09;7317561;19;129393;-69
2021/12/19 03:28:21;;;;;;;3.22;2.30;;;;;;;19.49;37.28;103475.59;7317795;19;131829;-68
2021/12/19 03:30:48;;;;;;;4.63;2.42;;;;;;;19.49;37.28;103458.94;7316151;19;131499;-68
2021/12/19 03:33:15;;;;;;;3.70;2.15;;;;;;;19.48;37.66;103468.31;7317698;19;129006;-68
2021/12/19 03:35:42;;;;;;;5.13;2.30;;;;;;;19.47;37.35;103461.03;7318724;19;128979;-68
2021/12/19 03:38:12;;;;;;;3.67;2.45;;;;;;;19.47;37.56;103466.59;7314716;19;130684;-68
2021/12/19 03:40:43;;;;;;;3.83;2.60;;;;;;;19.46;37.85;103459.31;7318899;19;130468;-68
2021/12/19 03:43:13;;;;;;;3.22;2.47;;;;;;;19.45;37.57;103454.81;7316607;19;130029;-68
2021/12/19 03:45:41;;;;;;;2.92;2.42;;;;;;;19.44;37.30;103455.88;7317894;19;129068;-68
2021/12/19 03:48:12;;;;;;;4.95;2.33;;;;;;;19.43;37.41;103448.59;7315943;19;130730;-68
2021/12/19 03:50:43;;;;;;;3.50;1.92;;;;;;;19.42;37.72;103447.72;7317772;19;130863;-68
2021/12/19 03:53:12;;;;;;;3.47;2.38;;;;;;;19.42;37.72;103444.09;7319416;19;130527;-69
2021/12/19 03:55:39;;;;;;;2.85;2.33;;;;;;;19.41;37.43;103447.94;7316426;19;129217;-68
2021/12/19 03:58:06;;;;;;;3.20;1.95;;;;;;;19.40;37.68;103443.44;7315488;19;130613;-68
2021/12/19 04:00:35;;;;;;;3.83;2.60;;;;;;;19.38;37.87;103436.16;7316529;19;130721;-68
2021/12/19 04:03:09;;;;;;;4.32;2.38;;;;;;;19.38;37.43;103435.31;7318373;19;129500;-68
2021/12/19 04:05:42;;;;;;;6.03;2.28;;;;;;;19.37;37.39;103426.09;7317341;19;129059;-68
2021/12/19 04:08:09;;;;;;;2.60;2.10;;;;;;;19.37;37.76;103428.88;7316781;19;130746;-68
2021/12/19 04:10:36;;;;;;;3.58;2.45;;;;;;;19.36;37.36;103423.53;7315480;19;130561;-69
2021/12/19 04:13:02;;;;;;;4.38;2.63;;;;;;;19.35;37.36;103422.63;7314735;19;128935;-68
2021/12/19 04:15:30;;;;;;;3.67;2.30;;;;;;;19.34;37.38;103418.13;7316981;19;128903;-69
2021/12/19 04:17:56;;;;;;;4.57;2.55;;;;;;;19.34;37.33;103423.69;7313215;19;130558;-68
2021/12/19 04:20:23;;;;;;;3.47;2.30;;;;;;;19.33;37.46;103418.34;7317911;19;131528;-68
2021/12/19 04:22:51;;;;;;;2.53;2.22;;;;;;;19.32;37.55;103414.69;7313641;19;129317;-68
2021/12/19 04:25:19;;;;;;;3.63;2.30;;;;;;;19.30;37.76;103416.81;7318827;19;129635;-68
2021/12/19 04:27:47;;;;;;;3.97;2.70;;;;;;;19.29;37.36;103412.31;7314064;19;131459;-68
2021/12/19 04:30:18;;;;;;;4.30;2.60;;;;;;;19.29;37.31;103414.22;7317724;19;130643;-68
2021/12/19 04:32:55;;;;;;;4.05;2.58;;;;;;;19.29;37.59;103415.09;7315436;19;128855;-69
2021/12/19 04:35:22;;;;;;;2.03;1.83;;;;;;;19.28;37.65;103407.81;7315378;19;128782;-68
2021/12/19 04:40:25;;;;;;;2.47;1.90;;;;;;;19.27;37.43;103406.09;7313972;19;130737;-68
2021/12/19 05:04:26;;;;;;;2.55;2.10;;;;;;;19.18;37.79;103385.84;7316469;19;128791;-68
2021/12/19 05:15:09;;;;;;;2.92;2.13;;;;;;;19.15;37.31;103385.38;7313791;19;129381;-68
2021/12/19 05:17:36;;;;;;;3.33;2.65;;;;;;;19.13;37.35;103390.25;7315523;19;129024;-68
2021/12/19 05:20:11;;;;;;;4.45;2.58;;;;;;;19.14;37.50;103386.44;7311942;19;130679;-68
2021/12/19 05:22:46;;;;;;;4.05;2.28;;;;;;;19.14;37.44;103383.66;7315492;19;131538;-68
2021/12/19 05:25:17;;;;;;;2.92;2.20;;;;;;;19.13;37.57;103384.69;7314177;19;128858;-68
2021/12/19 05:27:45;;;;;;;2.42;2.20;;;;;;;19.13;37.63;103379.16;7312936;19;129112;-68
2021/12/19 05:30:13;;;;;;;3.03;2.42;;;;;;;19.12;37.67;103381.06;7316008;19;131563;-69
2021/12/19 05:32:42;;;;;;;3.95;2.28;;;;;;;19.12;37.50;103377.44;7313177;19;130598;-68
2021/12/19 05:35:11;;;;;;;3.30;2.65;;;;;;;19.11;37.39;103372.94;7316755;19;128797;-68
2021/12/19 05:45:55;;;;;;;3.22;2.08;;;;;;;19.05;37.28;103369.88;7312747;19;129074;-68
2021/12/19 05:48:21;;;;;;;3.33;2.13;;;;;;;19.05;37.52;103369.00;7315273;19;129074;-70
2021/12/19 05:50:48;;;;;;;2.83;2.20;;;;;;;19.05;37.40;103363.44;7311173;19;130418;-68
2021/12/19 05:53:15;;;;;;;3.10;2.80;;;;;;;19.03;37.12;103371.97;7315952;19;130715;-68
2021/12/19 05:55:42;;;;;;;3.05;2.60;;;;;;;19.03;37.38;103363.66;7313765;19;129886;-68
2021/12/19 05:58:09;;;;;;;3.38;2.35;;;;;;;19.02;37.48;103359.16;7313506;19;128954;-68
2021/12/19 06:00:36;;;;;;;3.00;2.25;;;;;;;19.03;37.19;103357.22;7310925;19;130765;-68
2021/12/19 06:03:04;;;;;;;2.55;1.92;;;;;;;19.04;37.17;103354.28;7311084;19;130501;-68
2021/12/19 06:05:31;;;;;;;3.08;1.98;;;;;;;19.04;37.15;103351.50;7314910;19;129780;-68
2021/12/19 06:07:58;;;;;;;2.60;2.13;;;;;;;19.03;37.29;103354.44;7311326;19;129435;-68
2021/12/19 06:10:28;;;;;;;3.72;2.17;;;;;;;19.04;37.58;103364.50;7313681;19;130603;-68
2021/12/19 06:12:57;;;;;;;2.47;2.22;;;;;;;19.03;37.38;103355.31;7311540;19;130359;-68
2021/12/19 06:15:24;;;;;;;3.28;2.40;;;;;;;19.01;37.52;103357.44;7313752;19;128932;-69
2021/12/19 06:17:52;;;;;;;3.22;2.20;;;;;;;19.01;37.22;103362.97;7311524;19;129075;-69
2021/12/19 06:20:20;;;;;;;2.95;2.30;;;;;;;19.00;37.49;103361.25;7313263;19;131017;-68
2021/12/19 06:22:46;;;;;;;3.30;2.20;;;;;;;19.00;37.50;103361.25;7314596;19;130606;-68
2021/12/19 06:25:13;;;;;;;2.83;2.25;;;;;;;18.99;37.36;103359.53;7312156;19;128967;-68
2021/12/19 06:27:40;;;;;;;2.72;2.33;;;;;;;18.99;37.37;103353.97;7314174;19;129236;-69
2021/12/19 06:30:07;;;;;;;2.88;2.13;;;;;;;18.99;37.41;103351.19;7311504;19;129912;-69
2021/12/19 06:32:34;;;;;;;3.03;2.30;;;;;;;18.99;37.51;103348.44;7314495;19;130594;-68
2021/12/19 06:35:06;;;;;;;2.40;1.90;;;;;;;18.98;37.29;103343.06;7312664;19;131147;-68
2021/12/19 06:37:37;;;;;;;2.47;2.20;;;;;;;18.99;37.03;103353.13;7313580;19;129395;-68
2021/12/19 06:40:09;;;;;;;2.83;2.33;;;;;;;18.97;36.96;103344.97;7315522;19;130780;-68
2021/12/19 06:42:35;;;;;;;3.40;2.40;;;;;;;18.97;37.06;103339.44;7319422;19;130665;-68
2021/12/19 06:45:04;;;;;;;2.78;2.38;;;;;;;18.97;36.95;103341.34;7320913;19;128805;-69
2021/12/19 06:47:31;;;;;;;3.10;2.15;;;;;;;18.96;37.03;103336.84;7319085;19;129950;-68
2021/12/19 06:49:58;;;;;;;3.17;2.20;;;;;;;18.96;37.42;103342.41;7320865;19;130627;-68
2021/12/19 06:52:25;;;;;;;3.50;2.20;;;;;;;18.95;37.14;103336.00;7317599;19;130716;-68
2021/12/19 06:54:52;;;;;;;2.95;2.13;;;;;;;18.94;37.43;103328.72;7320742;19;128736;-68
2021/12/19 06:57:18;;;;;;;3.03;2.40;;;;;;;18.95;37.02;103330.47;7317629;19;129068;-67
2021/12/19 06:59:47;;;;;;;2.63;1.83;;;;;;;18.93;37.04;103338.09;7318409;19;130556;-68
2021/12/19 07:02:16;;;;;;;2.33;1.98;;;;;;;18.93;37.33;103338.09;7317910;19;130517;-69
2021/12/19 07:04:44;;;;;;;3.10;2.33;;;;;;;18.92;36.97;103337.22;7317552;19;133863;-68
2021/12/19 07:07:11;;;;;;;2.65;2.17;;;;;;;18.91;36.92;103334.66;7320074;19;128835;-68
2021/12/19 07:09:38;;;;;;;2.90;1.90;;;;;;;18.91;37.21;103323.56;7317168;19;130601;-68
2021/12/19 07:12:06;;;;;;;2.80;2.20;;;;;;;18.90;37.05;103321.84;7320378;19;130490;-68
2021/12/19 07:14:34;;;;;;;2.88;2.00;;;;;;;18.90;37.10;103322.69;7316411;19;130275;-68
2021/12/19 07:17:01;;;;;;;2.90;2.05;;;;;;;18.89;37.03;103329.28;7319093;19;129250;-69
2021/12/19 07:19:28;;;;;;;3.47;2.13;;;;;;;18.88;37.04;103329.47;7316298;19;130625;-68
2021/12/19 07:21:54;;;;;;;3.30;2.35;;;;;;;18.88;37.04;103326.69;7318479;19;130746;-69
2021/12/19 07:24:21;;;;;;;2.70;1.98;;;;;;;18.88;37.28;103323.94;7314150;19;129623;-69
2021/12/19 07:26:48;;;;;;;2.58;1.90;;;;;;;18.87;37.25;103313.88;7317991;19;129547;-68
2021/12/19 07:29:14;;;;;;;2.83;2.03;;;;;;;18.88;36.88;103318.38;7319603;19;131628;-69
2021/12/19 07:31:42;;;;;;;2.50;2.20;;;;;;;18.88;37.17;103318.38;7317450;19;133177;-68
2021/12/19 07:34:08;;;;;;;7.88;3.03;;;;;;;18.90;37.11;103313.50;7318403;19;129107;-69
2021/12/19 07:36:40;;;;;;;4.22;1.90;;;;;;;18.93;37.03;103315.91;7314409;19;129075;-67
2021/12/19 07:39:55;;;;;;;12.68;4.75;;;;;;;18.95;36.32;103319.38;7314753;19;130520;-67
2021/12/19 07:41:54;;;;;;;11.75;6.43;;;;;;;18.91;34.65;103309.69;7312356;19;130642;-67
2021/12/19 07:44:20;;;;;;;13.63;6.53;;;;;;;18.90;34.55;103307.97;7316285;19;128878;-65
2021/12/19 07:46:47;;;;;;;10.30;5.68;;;;;;;18.95;34.05;103305.50;7316039;19;128854;-67
2021/12/19 07:49:14;;;;;;;11.00;5.55;;;;;;;19.08;34.02;103313.13;7314980;19;130909;-67
2021/12/19 07:51:40;;;;;;;10.90;4.85;;;;;;;19.26;33.83;103307.22;7316313;19;132097;-67
2021/12/19 07:54:07;;;;;;;7.32;4.10;;;;;;;19.45;33.99;103303.00;7303913;19;130203;-70
2021/12/19 07:56:34;;;;;;;9.25;3.95;;;;;;;19.66;34.27;103296.63;7314874;19;129796;-71
2021/12/19 07:59:01;;;;;;;10.27;3.92;;;;;;;19.90;33.91;103302.00;7313627;19;130647;-71
2021/12/19 08:01:28;;;;;;;13.23;3.35;;;;;;;20.10;33.50;103299.47;7315224;19;130433;-70
2021/12/19 08:03:55;;;;;;;9.70;3.47;;;;;;;20.32;33.62;103299.44;7314990;19;129012;-70
2021/12/19 08:06:22;;;;;;;6.85;2.83;;;;;;;20.49;33.49;103298.13;7316333;19;128775;-71
2021/12/19 08:08:55;;;;;;;6.70;2.28;;;;;;;20.67;33.39;103293.97;7310352;19;130677;-70
2021/12/19 08:11:40;;;;;;;4.88;2.60;;;;;;;20.83;33.17;103287.28;7311039;19;130576;-69
2021/12/19 08:14:09;;;;;;;5.43;2.38;;;;;;;20.96;32.99;103292.03;7316247;19;129592;-69
2021/12/19 08:16:37;;;;;;;7.72;2.55;;;;;;;21.08;33.17;103290.41;7312458;19;131193;-69
2021/12/19 08:19:04;;;;;;;5.65;2.47;;;;;;;21.16;33.17;103281.91;7313244;19;131295;-69
2021/12/19 08:21:31;;;;;;;6.65;2.45;;;;;;;21.27;33.22;103276.81;7310379;19;131227;-69
2021/12/19 08:24:00;;;;;;;6.15;2.28;;;;;;;21.36;32.87;103278.34;7313122;19;129726;-69
2021/12/19 08:26:29;;;;;;;7.05;2.25;;;;;;;21.45;33.18;103281.81;7313748;19;131653;-69
2021/12/19 08:29:01;;;;;;;3.60;2.10;;;;;;;21.51;33.32;103286.56;7313418;19;131305;-70
2021/12/19 08:31:27;;;;;;;5.80;2.20;;;;;;;21.56;33.06;103280.34;7309978;19;130814;-69
2021/12/19 08:33:54;;;;;;;8.80;1.90;;;;;;;21.59;33.25;103285.53;7309855;19;130163;-69
2021/12/19 08:36:22;;;;;;;7.80;2.50;;;;;;;21.60;33.30;103276.09;7312176;19;128854;-69
2021/12/19 08:38:48;;;;;;;3.60;2.10;;;;;;;21.58;33.43;103284.69;7312776;19;131641;-69
2021/12/19 08:41:15;;;;;;;6.85;2.08;;;;;;;21.56;33.16;103280.34;7314669;19;130746;-69
2021/12/19 08:43:42;;;;;;;8.90;2.00;;;;;;;21.51;33.52;103276.31;7313078;19;129337;-70
2021/12/19 08:46:11;;;;;;;5.97;1.80;;;;;;;21.47;33.53;103272.16;7315299;19;128917;-69
2021/12/19 08:48:38;;;;;;;4.80;1.77;;;;;;;21.42;34.02;103277.50;7310588;19;130734;-69
2021/12/19 08:51:06;;;;;;;6.60;1.58;;;;;;;21.37;34.26;103277.28;7315507;19;130673;-69
2021/12/19 08:53:33;;;;;;;4.55;1.63;;;;;;;21.31;34.07;103275.31;7314965;19;130189;-69
2021/12/19 08:55:59;;;;;;;4.00;1.63;;;;;;;21.27;34.38;103287.94;7315402;19;129527;-69
2021/12/19 08:58:28;;;;;;;7.95;2.00;;;;;;;21.19;34.41;103275.91;7313607;19;130504;-69
2021/12/19 09:01:01;;;;;;;5.75;1.98;;;;;;;21.15;34.27;103274.63;7313725;19;131610;-69
2021/12/19 09:03:30;;;;;;;3.63;1.63;;;;;;;21.10;34.64;103276.31;7312049;19;129356;-70
2021/12/19 09:05:58;;;;;;;5.38;1.90;;;;;;;21.03;34.53;103273.47;7312391;19;129340;-69
2021/12/19 09:08:25;;;;;;;6.88;1.98;;;;;;;20.98;34.70;103284.34;7311350;19;131258;-69
2021/12/19 09:10:53;;;;;;;7.05;1.83;;;;;;;20.89;34.55;103278.97;7312908;19;130749;-69
2021/12/19 09:13:20;;;;;;;5.93;1.90;;;;;;;20.83;34.86;103273.38;7312393;19;128877;-69
2021/12/19 09:15:47;;;;;;;5.80;2.38;;;;;;;20.77;34.61;103272.25;7310351;19;128970;-70
2021/12/19 09:18:14;;;;;;;5.65;1.88;;;;;;;20.71;34.42;103270.25;7314498;19;130792;-70
2021/12/19 09:20:40;;;;;;;7.43;2.60;;;;;;;20.67;34.44;103271.72;7311688;19;130718;-69
2021/12/19 09:23:08;;;;;;;10.70;2.00;;;;;;;20.66;34.74;103278.34;7313935;19;130252;-69
2021/12/19 09:25:39;;;;;;;7.55;2.13;;;;;;;20.68;34.83;103278.97;7313649;19;129703;-70
2021/12/19 09:28:06;;;;;;;7.63;2.00;;;;;;;20.71;34.49;103278.59;7313438;19;130646;-69
2021/12/19 09:30:34;;;;;;;4.07;1.80;;;;;;;20.77;34.96;103272.25;7312615;19;131198;-69
2021/12/19 09:33:01;;;;;;;8.57;1.73;;;;;;;20.85;34.85;103269.31;7312026;19;129931;-70
2021/12/19 09:35:28;;;;;;;3.58;1.83;;;;;;;20.96;34.56;103269.78;7314460;19;130001;-70
2021/12/19 09:37:55;;;;;;;3.50;1.65;;;;;;;21.08;34.86;103267.28;7310236;19;130601;-69
2021/12/19 09:40:31;;;;;;;7.97;1.77;;;;;;;21.14;34.32;103255.31;7309109;19;131127;-69
2021/12/19 09:43:02;;;;;;;4.07;2.00;;;;;;;21.18;34.63;103251.06;7309962;19;128816;-69
2021/12/19 09:45:31;;;;;;;5.85;1.80;;;;;;;21.22;34.26;103253.22;7314327;19;128900;-69
2021/12/19 09:47:59;;;;;;;4.65;1.70;;;;;;;21.25;34.44;103256.66;7311674;19;130711;-69
2021/12/19 09:50:28;;;;;;;5.03;1.67;;;;;;;21.24;34.38;103249.38;7311701;19;131049;-69
2021/12/19 09:52:55;;;;;;;9.20;1.70;;;;;;;21.22;34.37;103256.00;7310905;19;129424;-69
2021/12/19 09:55:26;;;;;;;16.55;2.60;;;;;;;21.22;34.75;103250.44;7305238;19;130697;-70
2021/12/19 09:57:53;;;;;;;11.52;1.95;;;;;;;21.22;34.59;103242.09;7312556;19;131501;-70
2021/12/19 10:00:21;;;;;;;6.47;1.92;;;;;;;21.25;34.91;103251.09;7309726;19;131475;-69
2021/12/19 10:02:48;;;;;;;14.57;2.35;;;;;;;21.25;34.80;103245.53;7313827;19;128783;-71
2021/12/19 10:05:24;;;;;;;15.70;2.08;;;;;;;21.28;35.01;103237.63;7309956;19;128993;-68
2021/12/19 10:08:03;;;;;;;11.10;2.17;;;;;;;21.34;34.89;103238.72;7312815;19;130717;-68
2021/12/19 10:10:45;;;;;;;6.82;1.90;;;;;;;21.42;35.13;103243.22;7307831;19;130554;-67
2021/12/19 10:13:13;;;;;;;9.40;1.83;;;;;;;21.47;35.19;103238.75;7310360;19;130695;-67
2021/12/19 10:15:43;;;;;;;13.38;2.20;;;;;;;21.52;35.07;103236.25;7314444;19;130435;-68
2021/12/19 10:18:14;;;;;;;25.02;2.33;;;;;;;21.57;35.32;103232.81;7316976;19;131833;-71
2021/12/19 10:20:45;;;;;;;11.20;2.30;;;;;;;21.58;35.17;103225.31;7316281;19;130932;-68
2021/12/19 10:23:17;;;;;;;17.75;2.92;;;;;;;21.63;35.40;103219.97;7318721;19;130392;-68
2021/12/19 10:25:44;;;;;;;18.52;2.65;;;;;;;21.66;35.02;103216.78;7318927;19;130078;-66
2021/12/19 10:28:10;;;;;;;16.65;2.08;;;;;;;21.70;35.28;103209.69;7317093;19;130744;-66
2021/12/19 10:30:43;;;;;;;20.98;2.28;;;;;;;21.71;35.20;103208.63;7319999;19;131597;-67
2021/12/19 10:33:15;;;;;;;11.73;2.60;;;;;;;21.71;34.79;103208.63;7317055;19;130137;-66
2021/12/19 10:35:50;;;;;;;9.07;2.10;;;;;;;21.73;34.90;103214.84;7311201;19;128907;-67
2021/12/19 10:38:23;;;;;;;17.50;2.70;;;;;;;21.73;35.14;103200.03;7318447;19;130278;-67
2021/12/19 10:41:00;;;;;;;11.63;1.90;;;;;;;21.73;35.69;103195.34;7316645;19;130709;-68
2021/12/19 10:43:31;;;;;;;8.55;2.28;;;;;;;21.72;35.55;103196.41;7319423;19;129638;-66
2021/12/19 10:46:04;;;;;;;15.93;2.10;;;;;;;21.73;35.96;103195.34;7315383;19;129331;-67
2021/12/19 10:48:42;;;;;;;6.15;1.90;;;;;;;21.75;36.23;103193.22;7318436;19;130797;-67
2021/12/19 10:51:15;;;;;;;8.60;2.25;;;;;;;21.75;35.93;103187.63;7315008;19;131669;-69
2021/12/19 10:53:54;;;;;;;12.38;2.28;;;;;;;21.77;36.20;103185.50;7315038;19;129821;-69
2021/12/19 10:56:30;;;;;;;19.17;2.92;;;;;;;21.80;35.98;103184.22;7316864;19;129077;-68
2021/12/19 10:58:58;;;;;;;20.48;2.83;;;;;;;21.82;35.68;103174.56;7315892;19;131538;-69
2021/12/19 11:01:29;;;;;;;21.05;3.38;;;;;;;21.86;36.15;103171.34;7314677;19;130689;-69
2021/12/19 11:03:56;;;;;;;20.90;2.92;;;;;;;21.89;35.67;103173.72;7316301;19;130394;-69
2021/12/19 11:06:36;;;;;;;19.75;2.67;;;;;;;21.94;35.64;103168.34;7318595;19;128972;-68
2021/12/19 11:09:07;;;;;;;22.38;2.92;;;;;;;21.97;35.71;103170.69;7313324;19;130632;-67
2021/12/19 11:11:41;;;;;;;20.33;3.13;;;;;;;22.00;35.90;103163.84;7317101;19;131140;-66
2021/12/19 11:14:39;;;;;;;14.55;2.55;;;;;;;22.03;36.22;103157.84;7310857;19;131761;-66
2021/12/19 11:17:10;;;;;;;17.13;2.60;;;;;;;22.05;36.10;103158.47;7311603;19;129714;-67
2021/12/19 11:19:39;;;;;;;19.80;3.05;;;;;;;22.07;35.97;103157.19;7316227;19;131460;-66
2021/12/19 11:22:24;;;;;;;15.70;2.20;;;;;;;22.08;36.31;103149.69;7312174;19;131901;-67
2021/12/19 11:24:54;;;;;;;26.73;2.95;;;;;;;22.10;36.66;103141.94;7316898;19;129649;-67
2021/12/19 11:27:22;;;;;;;27.25;3.10;;;;;;;22.13;36.86;103135.94;7312794;19;129092;-68
2021/12/19 11:29:53;;;;;;;19.00;2.60;;;;;;;22.15;36.83;103133.81;7315534;19;130564;-66
2021/12/19 11:33:12;;;;;;;23.80;3.35;;;;;;;22.15;37.13;103127.38;7312700;19;132021;-66
2021/12/19 11:35:45;;;;;;;22.40;3.10;;;;;;;22.17;37.43;103120.50;7312051;19;129009;-67
2021/12/19 11:38:13;;;;;;;18.67;2.92;;;;;;;22.19;37.35;103114.72;7317508;19;128744;-67
2021/12/19 11:40:43;;;;;;;12.35;2.30;;;;;;;22.20;37.49;103113.63;7312376;19;130700;-65
2021/12/19 11:43:12;;;;;;;14.88;2.90;;;;;;;22.21;37.90;103104.22;7317244;19;131423;-66
2021/12/19 11:45:42;;;;;;;18.70;2.60;;;;;;;22.23;38.12;103102.94;7312189;19;129297;-66
2021/12/19 11:48:30;;;;;;;14.55;2.60;;;;;;;22.26;37.74;103101.66;7311952;19;129343;-67
2021/12/19 11:51:03;;;;;;;10.45;2.45;;;;;;;22.26;38.07;103093.28;7311523;19;130258;-67
2021/12/19 11:53:39;;;;;;;18.25;2.60;;;;;;;22.28;38.24;103088.31;7314906;19;130572;-66
2021/12/19 11:56:10;;;;;;;17.35;2.88;;;;;;;22.29;38.17;103081.69;7312717;19;130332;-66
2021/12/19 11:58:56;;;;;;;15.18;2.67;;;;;;;22.32;38.42;103089.63;7315125;19;128946;-66
2021/12/19 12:01:24;;;;;;;;;;;;;;;22.31;38.17;103087.91;7312300;19;131678;-67
2021/12/19 12:04:17;;;;;;;21.52;2.63;;;;;;;22.35;38.57;103088.31;7310550;19;131356;-65
2021/12/19 12:06:56;;;;;;;15.50;3.38;;;;;;;22.36;38.52;103079.75;7313701;19;130998;-65
2021/12/19 12:09:39;;;;;;;19.45;2.75;;;;;;;22.36;38.73;103079.75;7314120;19;130749;-65
2021/12/19 12:12:11;;;;;;;18.02;3.33;;;;;;;22.37;38.08;103075.00;7312320;19;131822;-66
2021/12/19 12:15:03;;;;;;;20.27;3.38;;;;;;;22.38;38.12;103072.03;7314057;19;130491;-65
2021/12/19 12:17:40;;;;;;;20.00;3.83;;;;;;;22.40;38.52;103069.84;7310021;19;130477;-67
2021/12/19 12:20:19;;;;;;;19.13;3.17;;;;;;;22.43;38.90;103066.63;7314333;19;130414;-66
2021/12/19 12:22:55;;;;;;;26.35;3.35;;;;;;;22.48;38.50;103065.94;7311193;19;130790;-67
2021/12/19 12:25:27;;;;;;;20.40;3.60;;;;;;;22.51;38.77;103059.94;7315755;19;131781;-69
2021/12/19 12:28:02;;;;;;;17.55;3.85;;;;;;;22.55;38.93;103051.97;7311544;19;129009;-67
2021/12/19 12:30:37;;;;;;;16.52;3.33;;;;;;;22.61;39.08;103053.91;7310995;19;128849;-68
2021/12/19 12:33:07;;;;;;;11.70;2.97;;;;;;;22.65;39.25;103051.50;7315165;19;131495;-68
2021/12/19 12:35:38;;;;;;;17.80;3.20;;;;;;;22.68;39.24;103054.72;7312699;19;130695;-70